Terminal Aerodrome Forecast
Issued by NWS

Current Version | Previous Version | Text Only | Print | Product List | Glossary Off
Versions: 1 2 3 4 5 6 7 8 9 10 11 12 13 14 15 16 17 18 19 20 21 22 23 24 25 26 27 28 29 30

000
FTUS41 KRLX 302300
TAFCKB
TAF
KCKB 302334Z 0100/0124 11003KT P6SM BKN070 OVC080
     FM010200 00000KT 6SM BR VCTS BKN070CB
     FM010400 00000KT 6SM BR BKN060
     FM011000 00000KT 6SM BR BKN008
     FM011600 00000KT P6SM SCT012
     FM011700 VRB03KT P6SM SCT035=

USA.gov is the U.S. government's official web portal to all federal, state and local government web resources and services.